Aérodrome :
LOGIN :

S'inscrire | Disclaimer

   EN    FR    IT 

 










Légende :    VFR   VFR Marginal   IFR   IFR Intensif   IFR Très Intensif
Visi : 
Plafond : 
>= 8 km
>= 3000ft
5 à 8 km
1000 à 3000 ft
1500m à 5 km
500 à 1000 ft
800 à 1500m
200 à 500 ft
< 800m
< 200 ft
Symboles :   Orages  Brouillard  Fortes neiges  Fortes précipitations  Vent > 20 kt
SIGMETs :   Divers  Orages  Givrage  Turbulence  Onde Orograph.  Cendres Volcan.







- Altitude de l'aérodrome : 622 ft
- Code IATA : BRS
- Voir les cartes d'approche


EGGD - Bristol Int.

DERNIER METAR :
  • 211750Z AUTO 12009KT 9999 -RA FEW033/// BKN044/// //////CB 04/04 Q1013

METARs EXPIRÉS :
  • 211720Z 10008KT 9999 FEW033 SCT046 04/04 Q1013
  • 211650Z 11007KT 9999 -SHRA FEW024 SCT042 05/05 Q1012
  • 211620Z 11009KT 9999 VCSH FEW028TCU SCT038 05/05 Q1012
  • 211550Z 11008KT 9999 VCSH SCT038 06/05 Q1011
  • 211520Z AUTO 12007KT 9999 NCD 06/04 Q1011

TAF TAF EGGD
Valide du 21 à 18h jusqu'au 22 à 18h UTC


211703Z 2118/2218 13012KT 9999 SCT020
PROB40
TEMPO 2118/2120 7000 SHRA BKN012
TEMPO 2120/2212 7000
PROB30 2206/2210 0300 FG FZFG BKN001
PROB30
TEMPO 2212/2218 7000
ATIS : +44 1275 473 666
Pas de NOTAMs connus pour ce terrain.



MET'MAP, la Météo Aéronautique d'un coup d'oeil ! - Copyright ORBIFLY Décembre 2007 - Disclaimer

ORBIFLY MET'MAP TEAM :

Programmation & Développement : Alexandra Zaïnal
Conception & Développement : Baudouin d'Aumeries
Co-Programmation & Développement : Marc-Olivier Méhu
Soutien technique & logistique : Manuel Goepfert

Contact : metmap@orbifly.com




SOURCES & CREDITS :

   NOAA